Time;durP1;ratioP1;P1;durP2;ratioP2;P2;SDS_P1;SDS_P2;PMS_P1;PMS_P2;Temp;Humidity;BMP_temperature;BMP_pressure;BME280_temperature;BME280_humidity;BME280_pressure;Samples;Min_cycle;Max_cycle;Signal;HPM_P1;HPM_P2
2022/10/21 00:01:21;;;;;;;0.20;0.20;;;12.30;99.90;;;;;;4878931;29;20446;-78
2022/10/21 00:03:46;;;;;;;0.20;0.20;;;12.30;99.90;;;;;;4864811;29;20077;-78
2022/10/21 00:06:12;;;;;;;0.13;0.13;;;12.30;99.90;;;;;;4896457;29;20108;-79
2022/10/21 00:08:38;;;;;;;0.10;0.10;;;12.30;99.90;;;;;;4870854;29;20040;-78
2022/10/21 00:11:06;;;;;;;0.20;0.20;;;12.20;99.90;;;;;;4879120;29;20051;-78
2022/10/21 00:13:34;;;;;;;0.20;0.20;;;12.10;99.90;;;;;;4895725;29;21553;-78
2022/10/21 00:16:28;;;;;;;0.20;0.20;;;12.30;99.90;;;;;;4890346;29;20045;-78
2022/10/21 00:18:54;;;;;;;0.10;0.10;;;12.30;99.90;;;;;;4876222;29;20137;-79
2022/10/21 00:21:21;;;;;;;0.20;0.20;;;12.30;99.90;;;;;;4879113;29;20144;-79
2022/10/21 00:23:48;;;;;;;0.10;0.10;;;12.20;99.90;;;;;;4877053;29;20041;-78
2022/10/21 00:26:15;;;;;;;0.20;0.20;;;12.30;99.90;;;;;;4874730;29;20146;-79
2022/10/21 00:28:41;;;;;;;0.10;0.10;;;12.20;99.90;;;;;;4884142;29;20510;-78
2022/10/21 00:31:10;;;;;;;0.20;0.20;;;12.50;99.90;;;;;;4885001;29;20037;-78
2022/10/21 00:33:35;;;;;;;0.17;0.17;;;12.20;99.90;;;;;;4892000;29;20412;-78
2022/10/21 00:36:03;;;;;;;0.17;0.17;;;12.20;99.90;;;;;;4872767;29;20037;-78
2022/10/21 00:38:30;;;;;;;0.20;0.20;;;12.20;99.90;;;;;;4885685;29;20047;-79
2022/10/21 00:40:56;;;;;;;0.10;0.10;;;12.20;99.90;;;;;;4867001;29;20053;-78
2022/10/21 00:43:23;;;;;;;0.20;0.20;;;12.20;99.90;;;;;;4888767;29;20570;-78
2022/10/21 00:45:52;;;;;;;0.20;0.20;;;12.20;99.90;;;;;;4867120;29;20404;-78
2022/10/21 00:48:29;;;;;;;0.20;0.20;;;12.20;99.90;;;;;;4891986;29;20059;-77
2022/10/21 00:51:00;;;;;;;0.10;0.10;;;12.20;99.90;;;;;;4874364;29;20056;-79
2022/10/21 00:53:26;;;;;;;0.17;0.17;;;12.00;99.90;;;;;;4889982;29;20045;-78
2022/10/21 00:55:58;;;;;;;0.20;0.20;;;12.20;99.90;;;;;;4877998;29;20727;-78
2022/10/21 00:58:28;;;;;;;0.15;0.15;;;12.30;99.90;;;;;;4890039;29;20442;-78
2022/10/21 01:00:56;;;;;;;0.20;0.20;;;12.10;99.90;;;;;;4873132;29;20488;-78
2022/10/21 01:03:24;;;;;;;0.10;0.10;;;12.20;99.90;;;;;;4872337;29;20470;-78
2022/10/21 01:05:50;;;;;;;0.17;0.17;;;12.20;99.90;;;;;;4876664;29;20837;-78
2022/10/21 01:08:18;;;;;;;0.10;0.10;;;12.10;99.90;;;;;;4892741;29;20044;-79
2022/10/21 01:10:43;;;;;;;0.20;0.20;;;12.10;99.90;;;;;;4868930;29;20075;-78
2022/10/21 01:13:37;;;;;;;0.13;0.13;;;12.10;99.90;;;;;;4892299;29;20084;-78
2022/10/21 01:16:32;;;;;;;0.20;0.20;;;12.10;99.90;;;;;;4893100;29;20048;-78
2022/10/21 01:19:00;;;;;;;0.10;0.10;;;12.10;99.90;;;;;;4851257;29;20091;-78
2022/10/21 01:21:40;;;;;;;0.10;0.10;;;12.10;99.90;;;;;;4894835;29;20040;-79
2022/10/21 01:24:17;;;;;;;0.10;0.10;;;12.10;99.90;;;;;;4879023;29;20539;-78
2022/10/21 01:27:20;;;;;;;0.10;0.10;;;12.10;99.90;;;;;;4886310;29;20126;-78
2022/10/21 01:30:06;;;;;;;0.10;0.10;;;12.10;99.90;;;;;;4873609;29;20551;-78
2022/10/21 01:33:23;;;;;;;0.20;0.20;;;12.10;99.90;;;;;;4873238;29;20127;-78
2022/10/21 01:35:57;;;;;;;0.20;0.20;;;12.10;99.90;;;;;;4850106;29;20056;-79
2022/10/21 01:38:41;;;;;;;0.10;0.10;;;12.10;99.90;;;;;;4885437;29;20075;-78
2022/10/21 01:41:19;;;;;;;0.20;0.20;;;12.10;99.90;;;;;;4876357;29;20066;-79
2022/10/21 01:44:14;;;;;;;0.10;0.10;;;12.30;99.90;;;;;;4874152;29;20059;-78
2022/10/21 01:46:56;;;;;;;0.20;0.20;;;12.10;99.90;;;;;;4873620;29;20055;-79
2022/10/21 01:49:37;;;;;;;0.10;0.10;;;12.10;99.90;;;;;;4886287;29;21112;-79
2022/10/21 01:52:04;;;;;;;0.20;0.20;;;12.10;99.90;;;;;;4865311;29;20049;-79
2022/10/21 01:54:43;;;;;;;0.10;0.10;;;12.10;99.90;;;;;;4894515;29;20124;-79
2022/10/21 01:57:13;;;;;;;0.15;0.15;;;12.30;99.90;;;;;;4893037;29;20100;-78
2022/10/21 01:59:41;;;;;;;0.10;0.10;;;12.10;99.90;;;;;;4876170;29;20048;-78
2022/10/21 02:02:08;;;;;;;0.10;0.10;;;12.10;99.90;;;;;;4890283;29;20063;-78
2022/10/21 02:04:37;;;;;;;0.10;0.10;;;12.20;99.90;;;;;;4894699;29;20044;-78
2022/10/21 02:07:03;;;;;;;0.10;0.10;;;12.10;99.90;;;;;;4881756;29;20062;-78
2022/10/21 02:09:29;;;;;;;0.10;0.10;;;12.10;99.90;;;;;;4863972;29;20481;-77
2022/10/21 02:11:59;;;;;;;0.20;0.20;;;12.20;99.90;;;;;;4880874;29;20044;-78
2022/10/21 02:14:33;;;;;;;0.10;0.10;;;12.10;99.90;;;;;;4860344;29;20562;-78
2022/10/21 02:16:59;;;;;;;0.20;0.20;;;12.10;99.90;;;;;;4863150;29;20053;-78
2022/10/21 02:19:25;;;;;;;0.10;0.10;;;12.10;99.90;;;;;;4882185;29;20517;-79
2022/10/21 02:21:54;;;;;;;0.10;0.10;;;12.10;99.90;;;;;;4859439;29;20311;-78
2022/10/21 02:24:23;;;;;;;0.10;0.10;;;12.10;99.90;;;;;;4876201;29;20076;-78
2022/10/21 02:26:48;;;;;;;0.10;0.10;;;12.10;99.90;;;;;;4890318;29;20871;-77
2022/10/21 02:29:19;;;;;;;0.10;0.10;;;12.10;99.90;;;;;;4876910;29;20040;-78
2022/10/21 02:31:53;;;;;;;0.10;0.10;;;12.10;99.90;;;;;;4862792;29;20045;-79
2022/10/21 02:34:29;;;;;;;0.15;0.15;;;12.10;99.90;;;;;;4861457;29;20053;-78
2022/10/21 02:37:21;;;;;;;0.17;0.17;;;12.10;99.90;;;;;;4858994;29;20041;-78
2022/10/21 02:39:51;;;;;;;0.20;0.20;;;12.10;99.90;;;;;;4867360;29;20401;-78
2022/10/21 02:42:24;;;;;;;0.10;0.10;;;12.20;99.90;;;;;;4880785;29;20096;-79
2022/10/21 02:44:51;;;;;;;0.10;0.10;;;12.20;99.90;;;;;;4890384;29;20076;-78
2022/10/21 02:47:17;;;;;;;0.20;0.20;;;12.20;99.90;;;;;;4881453;29;20061;-79
2022/10/21 02:49:44;;;;;;;0.10;0.10;;;12.20;99.90;;;;;;4876990;29;20564;-78
2022/10/21 02:52:10;;;;;;;0.10;0.10;;;12.20;99.90;;;;;;4880906;29;20056;-78
2022/10/21 02:54:35;;;;;;;0.10;0.10;;;12.20;99.90;;;;;;4886930;29;20623;-78
2022/10/21 02:57:01;;;;;;;0.10;0.10;;;12.20;99.90;;;;;;4893109;29;20569;-77
2022/10/21 02:59:26;;;;;;;0.10;0.10;;;12.20;99.90;;;;;;4892278;29;20497;-78
2022/10/21 03:01:52;;;;;;;0.10;0.10;;;12.20;99.90;;;;;;4885797;29;20091;-78
2022/10/21 03:04:18;;;;;;;0.10;0.10;;;12.10;99.90;;;;;;4876650;29;20401;-78
2022/10/21 03:06:43;;;;;;;0.20;0.20;;;12.20;99.90;;;;;;4893055;29;20056;-78
2022/10/21 03:09:09;;;;;;;0.10;0.10;;;12.20;99.90;;;;;;4876517;29;20044;-79
2022/10/21 03:11:35;;;;;;;0.20;0.20;;;12.20;99.90;;;;;;4893371;29;20072;-79
2022/10/21 03:14:01;;;;;;;0.20;0.20;;;12.30;99.90;;;;;;4876263;29;20048;-79
2022/10/21 03:16:26;;;;;;;0.20;0.20;;;12.30;99.90;;;;;;4876992;29;20492;-77
2022/10/21 03:18:52;;;;;;;0.20;0.20;;;12.00;99.90;;;;;;4876153;29;20048;-76
2022/10/21 03:21:18;;;;;;;0.20;0.20;;;12.20;99.90;;;;;;4891847;29;20040;-76
2022/10/21 03:23:43;;;;;;;0.10;0.10;;;12.30;99.90;;;;;;4894961;29;20127;-77
2022/10/21 03:26:09;;;;;;;0.10;0.10;;;12.30;99.90;;;;;;4880298;29;20056;-77
2022/10/21 03:28:34;;;;;;;0.10;0.10;;;12.30;99.90;;;;;;4895589;29;20052;-77
2022/10/21 03:31:00;;;;;;;0.20;0.20;;;12.60;99.90;;;;;;4897557;29;20614;-77
2022/10/21 03:33:26;;;;;;;0.10;0.10;;;12.30;99.90;;;;;;4886381;29;20044;-76
2022/10/21 03:35:52;;;;;;;0.20;0.20;;;12.40;99.90;;;;;;4879033;29;20048;-76
2022/10/21 03:38:17;;;;;;;0.20;0.20;;;12.40;99.90;;;;;;4881043;29;20084;-77
2022/10/21 03:40:43;;;;;;;0.20;0.20;;;12.40;99.90;;;;;;4895434;29;20041;-76
2022/10/21 03:43:09;;;;;;;0.10;0.10;;;12.40;99.90;;;;;;4893454;29;20049;-76
2022/10/21 03:45:34;;;;;;;0.20;0.20;;;12.40;99.90;;;;;;4897594;29;20055;-76
2022/10/21 03:48:00;;;;;;;0.13;0.13;;;12.40;99.90;;;;;;4889194;29;20158;-76
2022/10/21 03:50:26;;;;;;;0.20;0.20;;;12.40;99.90;;;;;;4888311;29;20573;-77
2022/10/21 03:52:52;;;;;;;0.20;0.20;;;12.40;99.90;;;;;;4878893;29;20072;-76
2022/10/21 03:55:19;;;;;;;0.10;0.10;;;12.40;99.90;;;;;;4866869;29;20049;-76
2022/10/21 03:57:46;;;;;;;0.20;0.20;;;12.50;99.90;;;;;;4889136;29;20510;-76
2022/10/21 04:00:12;;;;;;;0.10;0.10;;;12.50;99.90;;;;;;4886794;29;20678;-76
2022/10/21 04:02:38;;;;;;;0.20;0.20;;;12.50;99.90;;;;;;4877342;29;20449;-76
2022/10/21 04:05:04;;;;;;;0.13;0.13;;;12.50;99.90;;;;;;4896540;29;20036;-76
2022/10/21 04:07:30;;;;;;;0.20;0.20;;;12.50;99.90;;;;;;4879563;29;20059;-76
2022/10/21 04:09:55;;;;;;;0.13;0.13;;;12.50;99.90;;;;;;4872147;29;20445;-76
2022/10/21 04:12:21;;;;;;;0.17;0.17;;;12.60;99.90;;;;;;4895848;29;20104;-76
2022/10/21 04:14:47;;;;;;;0.20;0.20;;;12.70;99.90;;;;;;4879659;29;20060;-76
2022/10/21 04:17:12;;;;;;;0.20;0.20;;;12.60;99.90;;;;;;4886992;29;20041;-77
2022/10/21 04:19:38;;;;;;;0.20;0.20;;;12.70;99.90;;;;;;4888952;29;20048;-77
2022/10/21 04:22:03;;;;;;;0.10;0.10;;;12.60;99.90;;;;;;4878510;29;20044;-76
2022/10/21 04:24:29;;;;;;;0.20;0.20;;;12.60;99.90;;;;;;4892696;29;20072;-77
2022/10/21 04:26:55;;;;;;;0.10;0.10;;;12.60;99.90;;;;;;4876172;29;20041;-76
2022/10/21 04:29:20;;;;;;;0.17;0.17;;;12.60;99.90;;;;;;4894121;29;20366;-76
2022/10/21 04:31:46;;;;;;;0.10;0.10;;;12.60;99.90;;;;;;4863536;29;20048;-76
2022/10/21 04:34:12;;;;;;;0.10;0.10;;;12.60;99.90;;;;;;4891748;29;20099;-76
2022/10/21 04:36:37;;;;;;;0.10;0.10;;;12.50;99.90;;;;;;4874253;29;20100;-76
2022/10/21 04:39:03;;;;;;;0.10;0.10;;;12.60;99.90;;;;;;4883583;29;20037;-76
2022/10/21 04:41:29;;;;;;;0.20;0.20;;;12.60;99.90;;;;;;4884568;29;20055;-77
2022/10/21 04:43:54;;;;;;;0.20;0.20;;;12.60;99.90;;;;;;4873190;29;20068;-77
2022/10/21 04:46:20;;;;;;;0.10;0.10;;;12.60;99.90;;;;;;4884086;29;20547;-77
2022/10/21 04:48:46;;;;;;;0.20;0.20;;;12.60;99.90;;;;;;4886153;29;20064;-77
2022/10/21 04:51:11;;;;;;;0.20;0.20;;;12.60;99.90;;;;;;4884512;29;20140;-77
2022/10/21 04:53:37;;;;;;;0.10;0.10;;;12.50;99.90;;;;;;4894172;29;20044;-77
2022/10/21 04:56:03;;;;;;;0.20;0.20;;;12.60;99.90;;;;;;4887988;29;20116;-77
2022/10/21 04:58:29;;;;;;;0.20;0.20;;;12.60;99.90;;;;;;4867516;29;20045;-77
2022/10/21 05:00:54;;;;;;;0.20;0.20;;;12.50;99.90;;;;;;4885919;29;20041;-77
2022/10/21 05:03:20;;;;;;;0.10;0.10;;;12.60;99.90;;;;;;4863804;29;20064;-77
2022/10/21 05:05:50;;;;;;;0.20;0.20;;;12.60;99.90;;;;;;4867870;29;20041;-77
2022/10/21 05:08:17;;;;;;;0.10;0.10;;;12.60;99.90;;;;;;4887746;29;20057;-77
2022/10/21 05:10:42;;;;;;;0.20;0.20;;;12.60;99.90;;;;;;4887620;29;20037;-77
2022/10/21 05:13:08;;;;;;;0.10;0.10;;;12.60;99.90;;;;;;4871052;29;20053;-77
2022/10/21 05:15:34;;;;;;;0.10;0.10;;;12.60;99.90;;;;;;4883441;29;20121;-77
2022/10/21 05:17:59;;;;;;;0.20;0.20;;;12.60;99.90;;;;;;4874844;29;20123;-77
2022/10/21 05:20:25;;;;;;;0.10;0.10;;;12.60;99.90;;;;;;4890992;29;20142;-77
2022/10/21 05:22:52;;;;;;;0.20;0.20;;;12.80;99.90;;;;;;4877161;29;20037;-77
2022/10/21 05:25:18;;;;;;;0.10;0.10;;;12.70;99.90;;;;;;4868912;29;20123;-77
2022/10/21 05:27:45;;;;;;;0.20;0.20;;;12.80;99.90;;;;;;4876233;29;20120;-77
2022/10/21 05:30:11;;;;;;;0.10;0.10;;;12.80;99.90;;;;;;4883683;29;20493;-78
2022/10/21 05:32:39;;;;;;;0.10;0.10;;;12.80;99.90;;;;;;4877204;29;20056;-78
2022/10/21 05:35:06;;;;;;;0.20;0.20;;;12.80;99.90;;;;;;4880538;29;20881;-77
2022/10/21 05:37:31;;;;;;;0.13;0.13;;;12.80;99.90;;;;;;4891088;29;20049;-77
2022/10/21 05:39:57;;;;;;;0.10;0.10;;;12.80;99.90;;;;;;4890591;29;20516;-77
2022/10/21 05:42:22;;;;;;;0.17;0.17;;;12.80;99.90;;;;;;4886761;29;20113;-77
2022/10/21 05:44:48;;;;;;;0.20;0.20;;;12.80;99.90;;;;;;4864171;29;20056;-77
2022/10/21 05:47:14;;;;;;;0.20;0.20;;;12.80;99.90;;;;;;4877064;29;20060;-78
2022/10/21 05:49:39;;;;;;;0.20;0.20;;;12.70;99.90;;;;;;4874018;29;20791;-76
2022/10/21 05:52:05;;;;;;;0.10;0.10;;;12.80;99.90;;;;;;4879781;29;20045;-75
2022/10/21 05:54:31;;;;;;;0.20;0.20;;;12.80;99.90;;;;;;4859984;29;20589;-76
2022/10/21 05:56:57;;;;;;;0.20;0.20;;;12.80;99.90;;;;;;4859146;29;20072;-77
2022/10/21 05:59:23;;;;;;;0.20;0.20;;;12.90;99.90;;;;;;4877155;29;20517;-76
2022/10/21 06:01:49;;;;;;;0.17;0.17;;;12.70;99.90;;;;;;4892700;29;20568;-77
2022/10/21 06:04:14;;;;;;;0.10;0.10;;;12.60;99.90;;;;;;4859965;29;20136;-75
2022/10/21 06:06:40;;;;;;;0.10;0.10;;;12.70;99.90;;;;;;4880006;29;20051;-76
2022/10/21 06:09:05;;;;;;;0.10;0.10;;;12.80;99.90;;;;;;4888391;29;20401;-77
2022/10/21 06:11:31;;;;;;;0.10;0.10;;;12.70;99.90;;;;;;4886713;29;20063;-75
2022/10/21 06:13:57;;;;;;;0.13;0.13;;;12.70;99.90;;;;;;4870472;29;20051;-76
2022/10/21 06:16:22;;;;;;;0.20;0.20;;;12.70;99.90;;;;;;4884518;29;20049;-76
2022/10/21 06:18:48;;;;;;;0.20;0.20;;;12.70;99.90;;;;;;4887997;29;20053;-76
2022/10/21 06:21:14;;;;;;;0.10;0.10;;;12.80;99.90;;;;;;4892629;29;20197;-76
2022/10/21 06:23:40;;;;;;;0.10;0.10;;;12.70;99.90;;;;;;4892867;29;20706;-76
2022/10/21 06:26:15;;;;;;;0.17;0.17;;;12.80;99.90;;;;;;4887214;29;20108;-76
2022/10/21 06:28:43;;;;;;;0.10;0.10;;;12.70;99.90;;;;;;4883972;29;20041;-75
2022/10/21 06:31:12;;;;;;;0.20;0.20;;;12.70;99.90;;;;;;4894006;29;20568;-76
2022/10/21 06:33:38;;;;;;;0.10;0.10;;;12.80;99.90;;;;;;4887621;29;20036;-75
2022/10/21 06:36:04;;;;;;;0.10;0.10;;;12.70;99.90;;;;;;4880586;29;20049;-76
2022/10/21 06:38:32;;;;;;;0.10;0.10;;;12.70;99.90;;;;;;4889199;29;20041;-77
2022/10/21 06:41:04;;;;;;;0.13;0.13;;;12.70;99.90;;;;;;4872398;29;20124;-75
2022/10/21 06:43:30;;;;;;;0.10;0.10;;;12.70;99.90;;;;;;4890673;29;20052;-76
2022/10/21 06:46:04;;;;;;;0.10;0.10;;;12.70;99.90;;;;;;4866317;29;20041;-76
2022/10/21 06:48:31;;;;;;;0.10;0.10;;;12.70;99.90;;;;;;4886200;29;20162;-76
2022/10/21 06:51:05;;;;;;;0.15;0.15;;;13.00;99.90;;;;;;4866008;29;20397;-75
2022/10/21 06:53:31;;;;;;;0.10;0.10;;;12.70;99.90;;;;;;4887343;29;20108;-76
2022/10/21 06:56:01;;;;;;;0.20;0.20;;;12.70;99.90;;;;;;4871035;29;20127;-76
2022/10/21 06:58:26;;;;;;;0.20;0.20;;;12.70;99.90;;;;;;4883792;29;20080;-75
2022/10/21 07:00:52;;;;;;;0.10;0.10;;;12.70;99.90;;;;;;4896446;29;20079;-76
2022/10/21 07:03:18;;;;;;;0.15;0.15;;;12.70;99.90;;;;;;4890964;29;20084;-76
2022/10/21 07:05:43;;;;;;;0.10;0.10;;;12.70;99.90;;;;;;4877969;29;20049;-74
2022/10/21 07:08:09;;;;;;;0.17;0.17;;;12.70;99.90;;;;;;4891973;29;20044;-77
2022/10/21 07:10:34;;;;;;;0.10;0.10;;;12.80;99.90;;;;;;4895012;29;20041;-77
2022/10/21 07:13:00;;;;;;;0.10;0.10;;;12.70;99.90;;;;;;4891636;29;20127;-77
2022/10/21 07:15:26;;;;;;;0.10;0.10;;;12.70;99.90;;;;;;4890528;29;20041;-77
2022/10/21 07:17:52;;;;;;;0.20;0.20;;;12.70;99.90;;;;;;4886553;29;20044;-77
2022/10/21 07:20:17;;;;;;;0.10;0.10;;;12.70;99.90;;;;;;4890831;29;20037;-77
2022/10/21 07:22:43;;;;;;;0.20;0.20;;;12.80;99.90;;;;;;4875774;29;20131;-77
2022/10/21 07:25:08;;;;;;;0.10;0.10;;;12.90;99.90;;;;;;4886312;29;20595;-77
2022/10/21 07:27:34;;;;;;;0.20;0.20;;;12.80;99.90;;;;;;4865927;29;20049;-77
2022/10/21 07:30:00;;;;;;;0.10;0.10;;;12.80;99.90;;;;;;4889344;29;20067;-77
2022/10/21 07:32:25;;;;;;;0.15;0.15;;;12.80;99.90;;;;;;4877695;29;20060;-77
2022/10/21 07:34:51;;;;;;;0.13;0.13;;;12.80;99.90;;;;;;4879303;29;20497;-77
2022/10/21 07:37:16;;;;;;;0.13;0.13;;;12.90;99.90;;;;;;4890751;29;20113;-77
2022/10/21 07:39:42;;;;;;;0.20;0.20;;;12.90;99.90;;;;;;4895384;29;20448;-77
2022/10/21 07:42:08;;;;;;;0.10;0.10;;;12.90;99.90;;;;;;4875037;29;20533;-77
2022/10/21 07:44:34;;;;;;;0.20;0.20;;;12.90;99.90;;;;;;4879624;29;20087;-77
2022/10/21 07:47:00;;;;;;;0.10;0.10;;;13.00;99.90;;;;;;4896263;29;20083;-77
2022/10/21 07:49:25;;;;;;;0.10;0.10;;;13.00;99.90;;;;;;4879559;29;20075;-77
2022/10/21 07:51:52;;;;;;;0.10;0.10;;;13.00;99.90;;;;;;4896327;29;20045;-76
2022/10/21 07:54:18;;;;;;;0.20;0.20;;;13.00;99.90;;;;;;4894629;29;20119;-77
2022/10/21 07:56:50;;;;;;;0.10;0.10;;;13.00;99.90;;;;;;4894122;29;20473;-76
2022/10/21 07:59:18;;;;;;;0.10;0.10;;;13.00;99.90;;;;;;4893995;29;20477;-77
2022/10/21 08:01:46;;;;;;;0.10;0.10;;;13.00;99.90;;;;;;4889049;29;20532;-76
2022/10/21 08:04:15;;;;;;;0.10;0.10;;;13.00;99.90;;;;;;4895358;29;20048;-76
2022/10/21 08:06:43;;;;;;;0.10;0.10;;;12.90;99.90;;;;;;4895013;29;20056;-76
2022/10/21 08:09:08;;;;;;;0.17;0.17;;;12.90;99.90;;;;;;4893293;29;20457;-77
2022/10/21 08:11:34;;;;;;;0.20;0.20;;;12.90;99.90;;;;;;4892915;29;20409;-76
2022/10/21 08:14:02;;;;;;;0.20;0.20;;;12.90;99.90;;;;;;4894855;29;20048;-76
2022/10/21 08:16:27;;;;;;;0.15;0.15;;;13.00;99.90;;;;;;4893818;29;20328;-76
2022/10/21 08:18:53;;;;;;;0.10;0.10;;;13.00;99.90;;;;;;4892175;29;20081;-77
2022/10/21 08:21:22;;;;;;;0.10;0.10;;;12.90;99.90;;;;;;4887770;29;20067;-76
2022/10/21 08:23:47;;;;;;;0.20;0.20;;;13.00;99.90;;;;;;4891476;29;20699;-75
2022/10/21 08:26:14;;;;;;;0.20;0.20;;;12.90;99.90;;;;;;4874220;29;20059;-74
2022/10/21 08:28:41;;;;;;;0.10;0.10;;;13.00;99.90;;;;;;4885773;29;20505;-75
2022/10/21 08:31:09;;;;;;;0.10;0.10;;;13.00;99.90;;;;;;4892314;29;20045;-75
2022/10/21 08:33:36;;;;;;;0.20;0.20;;;13.00;99.90;;;;;;4882265;29;20079;-75
2022/10/21 08:36:13;;;;;;;0.17;0.17;;;13.10;99.90;;;;;;4882919;29;20528;-74
2022/10/21 08:38:38;;;;;;;0.10;0.10;;;13.10;99.90;;;;;;4886210;29;20143;-75
2022/10/21 08:41:20;;;;;;;0.10;0.10;;;13.20;99.90;;;;;;4887887;29;20462;-75
2022/10/21 08:43:46;;;;;;;0.20;0.20;;;13.20;99.90;;;;;;4860042;29;20401;-75
2022/10/21 08:46:21;;;;;;;0.10;0.10;;;13.20;99.90;;;;;;4882703;29;20053;-75
2022/10/21 08:48:54;;;;;;;0.10;0.10;;;13.70;99.90;;;;;;4879343;29;20065;-75
2022/10/21 08:51:29;;;;;;;0.10;0.10;;;13.40;99.90;;;;;;4878089;29;20089;-75
2022/10/21 08:53:58;;;;;;;0.10;0.10;;;13.50;99.90;;;;;;4877360;29;20084;-76
2022/10/21 08:56:25;;;;;;;0.10;0.10;;;13.60;99.90;;;;;;4880816;29;20390;-75
2022/10/21 08:58:51;;;;;;;0.10;0.10;;;13.60;99.90;;;;;;4890240;29;20061;-76
2022/10/21 09:01:42;;;;;;;0.10;0.10;;;13.70;99.90;;;;;;4880800;29;20100;-75
2022/10/21 09:04:23;;;;;;;0.20;0.20;;;13.70;99.90;;;;;;4883812;29;20501;-75
2022/10/21 09:06:52;;;;;;;0.17;0.17;;;13.80;99.90;;;;;;4876007;29;20048;-75
2022/10/21 09:09:17;;;;;;;0.10;0.10;;;13.80;99.90;;;;;;4878240;29;20143;-76
2022/10/21 09:12:07;;;;;;;0.10;0.10;;;13.90;99.90;;;;;;4876128;29;20049;-75
2022/10/21 09:14:47;;;;;;;0.10;0.10;;;13.90;99.90;;;;;;4875894;29;20099;-75
2022/10/21 09:17:31;;;;;;;0.10;0.10;;;14.00;99.90;;;;;;4888193;29;20040;-76
2022/10/21 09:20:12;;;;;;;0.20;0.20;;;14.00;99.90;;;;;;4883991;29;20059;-75
2022/10/21 09:22:56;;;;;;;0.10;0.10;;;14.10;99.90;;;;;;4888286;29;20055;-75
2022/10/21 09:25:31;;;;;;;0.10;0.10;;;14.10;99.90;;;;;;4879599;29;20131;-75
2022/10/21 09:27:57;;;;;;;0.10;0.10;;;14.20;99.90;;;;;;4892065;29;20048;-75
2022/10/21 09:30:23;;;;;;;0.15;0.15;;;14.20;99.90;;;;;;4888564;29;20048;-76
2022/10/21 09:32:54;;;;;;;0.10;0.10;;;14.30;99.90;;;;;;4882773;29;20073;-75
2022/10/21 09:35:50;;;;;;;0.10;0.10;;;14.30;99.90;;;;;;4895218;29;20044;-75
2022/10/21 09:38:41;;;;;;;0.10;0.10;;;14.40;99.90;;;;;;4888778;29;20174;-76
2022/10/21 09:41:15;;;;;;;0.20;0.20;;;14.50;99.90;;;;;;4876746;29;20056;-76
2022/10/21 09:43:42;;;;;;;0.10;0.10;;;14.50;99.90;;;;;;4892502;29;20112;-76
2022/10/21 09:46:11;;;;;;;0.10;0.10;;;14.60;99.90;;;;;;4894093;29;20053;-76
2022/10/21 09:48:49;;;;;;;0.10;0.10;;;14.70;99.90;;;;;;4888163;29;20053;-76
2022/10/21 09:51:20;;;;;;;0.10;0.10;;;14.70;99.90;;;;;;4870088;29;20052;-75
2022/10/21 09:53:53;;;;;;;0.20;0.20;;;14.80;99.90;;;;;;4870786;29;20501;-75
2022/10/21 09:56:30;;;;;;;0.20;0.20;;;14.80;99.90;;;;;;4876720;29;20534;-75
2022/10/21 09:59:04;;;;;;;0.15;0.15;;;14.90;99.90;;;;;;4859997;29;20436;-76
2022/10/21 10:01:30;;;;;;;0.10;0.10;;;14.90;99.90;;;;;;4875801;29;20093;-76
2022/10/21 10:03:56;;;;;;;0.10;0.10;;;15.00;99.90;;;;;;4889233;29;20059;-75
2022/10/21 10:06:40;;;;;;;0.10;0.10;;;15.10;99.90;;;;;;4894591;29;20135;-75
2022/10/21 10:09:14;;;;;;;0.10;0.10;;;15.20;99.90;;;;;;4868789;29;20045;-75
2022/10/21 10:11:49;;;;;;;0.10;0.10;;;15.30;99.90;;;;;;4886248;29;20474;-76
2022/10/21 10:14:25;;;;;;;0.10;0.10;;;15.40;99.90;;;;;;4876864;29;20108;-75
2022/10/21 10:16:50;;;;;;;0.10;0.10;;;15.50;99.90;;;;;;4880209;29;20124;-76
2022/10/21 10:19:23;;;;;;;0.10;0.10;;;15.60;99.90;;;;;;4859896;29;20481;-76
2022/10/21 10:22:11;;;;;;;0.10;0.10;;;15.70;99.90;;;;;;4858579;29;20144;-75
2022/10/21 10:24:39;;;;;;;0.10;0.10;;;15.80;99.90;;;;;;4877392;29;20108;-75
2022/10/21 10:27:13;;;;;;;0.10;0.10;;;15.90;99.90;;;;;;4877098;29;20045;-76
2022/10/21 10:29:41;;;;;;;0.10;0.10;;;15.90;99.90;;;;;;4863049;29;20040;-75
2022/10/21 10:32:13;;;;;;;0.20;0.20;;;15.90;99.90;;;;;;4897826;29;20112;-75
2022/10/21 10:34:59;;;;;;;0.20;0.20;;;16.00;99.90;;;;;;4881668;29;20063;-75
2022/10/21 10:37:32;;;;;;;0.15;0.15;;;16.00;99.90;;;;;;4880359;29;20579;-76
2022/10/21 10:40:01;;;;;;;0.20;0.20;;;16.00;99.90;;;;;;4887593;29;20086;-74
2022/10/21 10:42:41;;;;;;;0.10;0.10;;;16.00;99.90;;;;;;4871387;29;20139;-74
2022/10/21 10:45:25;;;;;;;0.10;0.10;;;16.10;99.90;;;;;;4866225;29;20452;-74
2022/10/21 10:47:54;;;;;;;0.20;0.20;;;16.20;99.90;;;;;;4893383;29;20095;-74
2022/10/21 10:50:43;;;;;;;0.30;0.20;;;16.10;99.90;;;;;;4881400;29;20569;-75
2022/10/21 10:53:11;;;;;;;0.10;0.10;;;16.10;99.90;;;;;;4883879;29;20491;-74
2022/10/21 10:55:42;;;;;;;0.10;0.10;;;16.10;99.90;;;;;;4896605;29;20096;-75
2022/10/21 10:58:09;;;;;;;0.10;0.10;;;16.10;99.90;;;;;;4889989;29;20044;-74
2022/10/21 11:00:42;;;;;;;0.10;0.10;;;16.10;99.90;;;;;;4879983;29;20068;-74
2022/10/21 11:03:17;;;;;;;0.10;0.10;;;16.00;99.90;;;;;;4879505;29;20105;-75
2022/10/21 11:05:46;;;;;;;0.10;0.10;;;16.10;99.90;;;;;;4863248;29;20049;-75
2022/10/21 11:08:31;;;;;;;0.20;0.20;;;16.20;99.90;;;;;;4885542;29;20036;-75
2022/10/21 11:11:01;;;;;;;0.20;0.20;;;16.20;99.90;;;;;;4897048;29;20085;-75
2022/10/21 11:13:27;;;;;;;0.10;0.10;;;16.30;99.90;;;;;;4864291;29;20127;-75
2022/10/21 11:16:24;;;;;;;0.10;0.10;;;16.30;99.90;;;;;;4866614;29;20127;-74
2022/10/21 11:19:11;;;;;;;0.20;0.20;;;16.30;99.90;;;;;;4879158;29;20226;-75
2022/10/21 11:21:53;;;;;;;0.20;0.20;;;16.40;99.90;;;;;;4895610;29;20053;-75
2022/10/21 11:24:35;;;;;;;0.10;0.10;;;16.50;99.90;;;;;;4885811;29;20045;-75
2022/10/21 11:27:22;;;;;;;0.10;0.10;;;16.60;99.90;;;;;;4874435;29;20048;-74
2022/10/21 11:30:00;;;;;;;0.10;0.10;;;16.60;99.90;;;;;;4875427;29;20143;-75
2022/10/21 11:32:35;;;;;;;0.20;0.20;;;16.70;99.90;;;;;;4871136;29;20053;-75
2022/10/21 11:35:09;;;;;;;0.10;0.10;;;16.70;99.90;;;;;;4868107;29;20080;-74
2022/10/21 11:38:16;;;;;;;0.20;0.20;;;16.70;99.90;;;;;;4871809;29;20108;-75
2022/10/21 11:40:48;;;;;;;0.17;0.17;;;16.70;99.90;;;;;;4868700;29;20056;-75
2022/10/21 11:43:47;;;;;;;0.10;0.10;;;16.70;99.90;;;;;;4886432;29;20041;-75
2022/10/21 11:46:25;;;;;;;0.20;0.20;;;16.80;99.90;;;;;;4886954;29;20485;-75
2022/10/21 11:48:53;;;;;;;0.20;0.20;;;16.80;99.90;;;;;;4883677;29;20504;-75
2022/10/21 11:51:34;;;;;;;0.15;0.15;;;16.80;99.90;;;;;;4869459;29;20072;-75
2022/10/21 11:54:22;;;;;;;0.10;0.10;;;16.90;99.90;;;;;;4888415;29;20051;-75
2022/10/21 11:57:18;;;;;;;0.10;0.10;;;16.90;99.90;;;;;;4865092;29;20356;-75
2022/10/21 12:00:04;;;;;;;0.20;0.20;;;16.90;99.90;;;;;;4862393;29;20053;-75
2022/10/21 12:02:42;;;;;;;0.10;0.10;;;17.00;99.90;;;;;;4881492;29;20137;-75
2022/10/21 12:05:26;;;;;;;0.20;0.20;;;17.00;99.90;;;;;;4893819;29;20063;-75
2022/10/21 12:08:13;;;;;;;0.20;0.20;;;17.00;99.90;;;;;;4875374;29;20053;-75
2022/10/21 12:11:00;;;;;;;0.20;0.20;;;17.00;99.90;;;;;;4878276;29;20132;-76
2022/10/21 12:13:32;;;;;;;0.17;0.17;;;17.00;99.90;;;;;;4886730;29;20060;-76
2022/10/21 12:16:00;;;;;;;0.10;0.10;;;17.00;99.90;;;;;;4871283;29;20088;-76
2022/10/21 12:18:28;;;;;;;0.20;0.20;;;16.90;99.90;;;;;;4890290;29;20052;-76
2022/10/21 12:20:55;;;;;;;0.20;0.20;;;16.90;99.90;;;;;;4878319;29;20147;-76
2022/10/21 12:23:28;;;;;;;0.20;0.20;;;16.80;99.90;;;;;;4879863;29;20128;-75
2022/10/21 12:25:59;;;;;;;0.10;0.10;;;16.90;99.90;;;;;;4872345;29;20044;-75
2022/10/21 12:28:31;;;;;;;0.20;0.20;;;16.90;99.90;;;;;;4877014;29;20060;-75
2022/10/21 12:31:08;;;;;;;0.10;0.10;;;16.80;99.90;;;;;;4896473;29;20532;-75
2022/10/21 12:33:37;;;;;;;0.20;0.20;;;16.90;99.90;;;;;;4879653;29;20044;-75
2022/10/21 12:36:37;;;;;;;0.10;0.10;;;16.90;99.90;;;;;;4893491;29;20053;-75
2022/10/21 12:39:17;;;;;;;0.20;0.20;;;16.90;99.90;;;;;;4896557;29;20079;-75
2022/10/21 12:41:47;;;;;;;0.10;0.10;;;17.00;99.90;;;;;;4889128;29;20374;-75
2022/10/21 12:44:20;;;;;;;0.17;0.17;;;17.00;99.90;;;;;;4879602;29;20084;-75
2022/10/21 12:46:49;;;;;;;0.10;0.10;;;16.90;99.90;;;;;;4879386;29;20075;-76
2022/10/21 12:49:18;;;;;;;0.10;0.10;;;16.90;99.90;;;;;;4915607;29;20404;-76
2022/10/21 12:52:01;;;;;;;0.20;0.20;;;16.90;99.90;;;;;;4894748;29;20063;-75
2022/10/21 12:54:34;;;;;;;0.10;0.10;;;17.00;99.90;;;;;;4902472;29;20193;-76
2022/10/21 12:57:21;;;;;;;0.10;0.10;;;17.00;99.90;;;;;;4899519;29;20139;-75
2022/10/21 12:59:47;;;;;;;0.20;0.20;;;17.00;99.90;;;;;;4897413;29;20086;-75
2022/10/21 13:02:25;;;;;;;0.10;0.10;;;16.90;99.90;;;;;;4914360;29;20048;-75
2022/10/21 13:04:53;;;;;;;0.17;0.17;;;16.90;99.90;;;;;;4896455;29;20047;-75
2022/10/21 13:07:26;;;;;;;0.10;0.10;;;16.90;99.90;;;;;;4890329;29;20405;-75